Time;durP1;ratioP1;P1;durP2;ratioP2;P2;SDS_P1;SDS_P2;PMS_P1;PMS_P2;Temp;Humidity;BMP_temperature;BMP_pressure;BME280_temperature;BME280_humidity;BME280_pressure;Samples;Min_cycle;Max_cycle;Signal;HPM_P1;HPM_P2
2022/04/15 00:00:13;;;;;;;6.27;5.43;;;18.70;66.90;19.10;96851.00;;;;4972371;28;20191;-86
2022/04/15 00:05:36;;;;;;;5.40;5.00;;;18.60;67.90;19.10;96855.00;;;;4915154;28;20221;-83
2022/04/15 00:08:05;;;;;;;7.07;5.80;;;18.60;68.20;19.00;96849.00;;;;4916689;28;20220;-84
2022/04/15 00:10:33;;;;;;;5.63;5.20;;;18.50;68.60;19.00;96844.00;;;;4922699;28;20225;-83
2022/04/15 00:13:03;;;;;;;6.40;5.73;;;18.50;69.00;19.00;96837.00;;;;4916437;28;20232;-83
2022/04/15 00:15:30;;;;;;;5.77;5.27;;;18.50;69.40;19.00;96826.00;;;;4941048;23;20229;-84
2022/04/15 00:17:58;;;;;;;5.47;5.17;;;18.40;69.30;18.90;96815.00;;;;4972015;28;20686;-84
2022/04/15 00:20:26;;;;;;;6.47;5.97;;;18.40;69.40;18.90;96811.00;;;;4972804;28;20226;-84
2022/04/15 00:22:53;;;;;;;5.70;5.30;;;18.40;69.50;18.90;96818.00;;;;4972453;28;20721;-85
2022/04/15 00:25:24;;;;;;;5.63;5.13;;;18.40;69.70;18.90;96827.00;;;;4953911;28;20221;-85
2022/04/15 00:27:51;;;;;;;5.97;5.40;;;18.30;69.80;18.80;96835.00;;;;4934743;28;20188;-85
2022/04/15 00:30:19;;;;;;;6.10;5.60;;;18.30;69.70;18.80;96833.00;;;;4940297;29;20192;-84
2022/04/15 00:32:46;;;;;;;5.93;5.43;;;18.30;69.50;18.80;96835.00;;;;4953012;28;20307;-85
2022/04/15 00:35:13;;;;;;;6.40;5.80;;;18.30;69.50;18.70;96834.00;;;;4952826;28;20200;-84
2022/04/15 00:37:40;;;;;;;6.80;6.20;;;18.20;69.50;18.70;96829.00;;;;4953819;29;20207;-84
2022/04/15 00:40:10;;;;;;;6.00;5.50;;;18.20;69.70;18.60;96825.00;;;;4952747;28;20196;-85
2022/04/15 00:42:38;;;;;;;6.07;5.67;;;18.20;69.80;18.60;96831.00;;;;4943080;28;20200;-84
2022/04/15 00:45:09;;;;;;;5.97;5.57;;;18.10;69.80;18.60;96844.00;;;;4952880;29;20210;-85
2022/04/15 00:47:51;;;;;;;6.97;6.37;;;18.10;69.90;18.50;96855.00;;;;4953414;28;20197;-84
2022/04/15 00:50:19;;;;;;;6.37;5.77;;;18.10;70.90;18.50;96851.00;;;;4953032;28;20754;-85
2022/04/15 00:52:48;;;;;;;6.30;5.80;;;18.00;70.40;18.50;96849.00;;;;4952997;28;20228;-85
2022/04/15 00:55:19;;;;;;;6.13;5.63;;;18.00;70.40;18.40;96857.00;;;;4953316;28;20221;-84
2022/04/15 00:57:51;;;;;;;6.47;5.87;;;18.00;70.30;18.40;96860.00;;;;4952827;29;20203;-84
2022/04/15 01:00:19;;;;;;;6.27;5.77;;;18.00;70.70;18.40;96861.00;;;;4952977;29;20302;-85
2022/04/15 01:02:47;;;;;;;6.83;6.23;;;17.90;70.60;18.40;96861.00;;;;4952666;29;20212;-83
2022/04/15 01:05:16;;;;;;;9.00;7.87;;;17.90;70.60;18.40;96862.00;;;;4951178;28;20583;-84
2022/04/15 01:07:51;;;;;;;8.13;7.27;;;17.90;70.50;18.40;96869.00;;;;4952819;29;20208;-85
2022/04/15 01:10:20;;;;;;;7.37;6.67;;;17.90;71.40;18.40;96883.00;;;;4951658;28;20200;-85
2022/04/15 01:12:59;;;;;;;7.47;6.80;;;17.90;71.10;18.40;96903.00;;;;4970166;28;20224;-85
2022/04/15 01:15:28;;;;;;;7.07;6.57;;;17.90;72.00;18.40;96907.00;;;;4952034;28;20727;-85
2022/04/15 01:17:55;;;;;;;6.13;5.63;;;17.90;71.30;18.30;96904.00;;;;4952401;29;20273;-85
2022/04/15 01:20:23;;;;;;;6.07;5.57;;;17.90;71.40;18.30;96866.00;;;;4952828;28;20204;-85
2022/04/15 01:22:57;;;;;;;7.30;6.53;;;17.90;71.40;18.30;96854.00;;;;4947980;29;20568;-84
2022/04/15 01:25:25;;;;;;;6.80;6.20;;;17.80;71.70;18.30;96869.00;;;;4933268;29;20220;-84
2022/04/15 01:27:52;;;;;;;7.33;6.63;;;17.80;73.10;18.20;96873.00;;;;4943809;29;20196;-83
2022/04/15 01:30:21;;;;;;;7.07;6.57;;;17.80;74.40;18.10;96873.00;;;;4952744;28;20204;-83
2022/04/15 01:32:49;;;;;;;9.20;7.30;;;17.70;74.90;18.10;96860.00;;;;4952564;28;20227;-84
2022/04/15 01:35:19;;;;;;;7.50;6.87;;;17.60;75.20;18.00;96850.00;;;;4952567;29;20290;-84
2022/04/15 01:37:49;;;;;;;7.57;6.87;;;17.60;75.80;17.90;96854.00;;;;4952260;29;20227;-84
2022/04/15 01:40:19;;;;;;;8.23;7.47;;;17.50;75.40;17.90;96858.00;;;;4952334;28;20196;-83
2022/04/15 01:42:48;;;;;;;7.50;6.90;;;17.50;76.20;17.90;96846.00;;;;4952046;28;20204;-83
2022/04/15 01:45:16;;;;;;;7.90;7.20;;;17.40;76.50;17.80;96859.00;;;;4952227;28;20224;-84
2022/04/15 01:47:43;;;;;;;9.20;8.00;;;17.30;76.80;17.80;96864.00;;;;4952397;28;20234;-83
2022/04/15 01:50:11;;;;;;;8.47;7.77;;;17.30;77.30;17.80;96859.00;;;;4952541;28;20250;-83
2022/04/15 01:52:39;;;;;;;9.13;8.33;;;17.30;77.60;17.80;96863.00;;;;4948965;28;20646;-83
2022/04/15 01:55:07;;;;;;;8.43;7.47;;;17.30;77.80;17.80;96858.00;;;;4945773;29;20196;-83
2022/04/15 01:57:35;;;;;;;8.33;7.63;;;17.20;77.70;17.70;96862.00;;;;4952299;28;20196;-83
2022/04/15 02:00:03;;;;;;;9.53;8.67;;;17.20;77.80;17.70;96868.00;;;;4952091;28;20200;-83
2022/04/15 02:02:30;;;;;;;8.47;7.77;;;17.20;78.70;17.70;96862.00;;;;4952011;28;20208;-83
2022/04/15 02:04:57;;;;;;;8.63;7.87;;;17.10;78.20;17.70;96868.00;;;;4951809;28;20200;-83
2022/04/15 02:07:24;;;;;;;9.17;8.30;;;17.10;78.40;17.60;96872.00;;;;4951953;28;20555;-83
2022/04/15 02:09:51;;;;;;;9.73;8.83;;;17.10;78.40;17.60;96869.00;;;;4951883;29;20192;-83
2022/04/15 02:12:18;;;;;;;9.27;8.33;;;17.10;78.50;17.60;96876.00;;;;4951901;28;20248;-83
2022/04/15 02:14:47;;;;;;;9.43;8.63;;;17.00;78.70;17.60;96867.00;;;;4951847;28;20211;-83
2022/04/15 02:17:14;;;;;;;9.23;8.43;;;17.00;79.20;17.60;96865.00;;;;4951369;28;20247;-83
2022/04/15 02:19:41;;;;;;;9.63;8.73;;;17.00;79.30;17.60;96886.00;;;;4952050;28;20200;-83
2022/04/15 02:22:08;;;;;;;9.97;9.00;;;17.00;79.70;17.60;96895.00;;;;4951532;28;20196;-83
2022/04/15 02:24:35;;;;;;;9.83;9.00;;;17.00;80.00;17.60;96893.00;;;;4933453;28;20209;-83
2022/04/15 02:27:03;;;;;;;9.80;8.90;;;17.00;80.10;17.60;96890.00;;;;4942442;29;20220;-83
2022/04/15 02:29:32;;;;;;;10.43;9.50;;;17.00;80.20;17.60;96887.00;;;;4952018;28;20554;-84
2022/04/15 02:32:00;;;;;;;9.97;9.07;;;17.00;80.50;17.60;96890.00;;;;4951420;29;20220;-83
2022/04/15 02:34:27;;;;;;;9.60;8.80;;;17.00;80.70;17.60;96888.00;;;;4951705;28;20215;-83
2022/04/15 02:36:54;;;;;;;10.07;9.17;;;17.00;80.70;17.60;96886.00;;;;4950549;28;20689;-83
2022/04/15 02:39:21;;;;;;;10.53;9.57;;;17.00;80.90;17.60;96896.00;;;;4951601;28;20196;-83
2022/04/15 02:41:51;;;;;;;10.80;9.80;;;17.00;81.10;17.70;96903.00;;;;4952450;28;20203;-84
2022/04/15 02:44:18;;;;;;;9.57;8.70;;;17.10;81.30;17.70;96912.00;;;;4951430;28;20196;-84
2022/04/15 02:46:47;;;;;;;10.17;9.37;;;17.10;81.40;17.60;96914.00;;;;4951322;29;20216;-84
2022/04/15 02:49:16;;;;;;;10.33;9.43;;;17.10;81.30;17.70;96917.00;;;;4951076;28;20203;-84
2022/04/15 02:51:43;;;;;;;10.20;9.33;;;17.10;81.30;17.70;96922.00;;;;4951607;28;20207;-83
2022/04/15 02:54:10;;;;;;;10.47;9.47;;;17.20;81.40;17.70;96908.00;;;;4936164;29;20292;-84
2022/04/15 02:56:37;;;;;;;10.60;9.60;;;17.10;81.40;17.70;96907.00;;;;4932166;28;20223;-84
2022/04/15 02:59:04;;;;;;;10.60;9.40;;;17.20;81.40;17.60;96912.00;;;;4950925;29;20565;-84
2022/04/15 03:01:31;;;;;;;9.80;8.97;;;17.10;81.40;17.60;96912.00;;;;4951373;28;20193;-83
2022/04/15 03:03:58;;;;;;;11.00;10.00;;;17.10;81.40;17.60;96908.00;;;;4951010;28;20206;-84
2022/04/15 03:06:26;;;;;;;10.70;9.80;;;17.10;81.40;17.60;96907.00;;;;4951301;28;20234;-85
2022/04/15 03:08:55;;;;;;;10.47;9.57;;;17.10;81.50;17.70;96915.00;;;;4951134;28;20210;-84
2022/04/15 03:11:22;;;;;;;10.23;9.43;;;17.10;81.50;17.70;96908.00;;;;4951280;28;20235;-85
2022/04/15 03:13:49;;;;;;;10.80;9.80;;;17.20;81.60;17.70;96918.00;;;;4950880;28;20219;-84
2022/04/15 03:16:16;;;;;;;10.10;9.30;;;17.10;81.50;17.70;96907.00;;;;4950626;28;20220;-84
2022/04/15 03:18:43;;;;;;;10.13;9.17;;;17.20;81.50;17.70;96912.00;;;;4951175;28;20204;-84
2022/04/15 03:21:10;;;;;;;9.70;8.90;;;17.20;81.60;17.70;96907.00;;;;4951123;29;20192;-84
2022/04/15 03:23:39;;;;;;;10.73;9.63;;;17.20;81.60;17.80;96906.00;;;;4950803;28;20559;-84
2022/04/15 03:26:07;;;;;;;9.97;8.97;;;17.20;81.70;17.80;96902.00;;;;4951120;28;20220;-84
2022/04/15 03:28:34;;;;;;;9.73;8.83;;;17.20;81.90;17.80;96904.00;;;;4952637;28;20208;-84
2022/04/15 03:31:01;;;;;;;10.83;9.73;;;17.20;82.00;17.80;96900.00;;;;4954119;28;20692;-83
2022/04/15 03:33:28;;;;;;;9.60;8.80;;;17.20;81.90;17.80;96903.00;;;;4954114;28;20334;-84
2022/04/15 03:35:55;;;;;;;10.37;9.50;;;17.20;81.90;17.80;96909.00;;;;4954023;28;20295;-83
2022/04/15 03:38:22;;;;;;;10.40;9.40;;;17.30;82.00;17.80;96904.00;;;;4954271;28;20294;-84
2022/04/15 03:40:51;;;;;;;9.57;8.77;;;17.30;81.90;17.80;96899.00;;;;4948694;28;20291;-84
2022/04/15 03:43:18;;;;;;;9.73;8.83;;;17.30;81.70;17.80;96903.00;;;;4948248;29;20203;-84
2022/04/15 03:45:45;;;;;;;10.37;9.47;;;17.30;81.50;17.80;96902.00;;;;4954135;29;20234;-84
2022/04/15 03:48:12;;;;;;;10.47;9.57;;;17.20;81.60;17.80;96898.00;;;;4954126;28;20200;-84
2022/04/15 03:50:39;;;;;;;10.30;9.30;;;17.30;81.60;17.80;96895.00;;;;4954119;29;20203;-84
2022/04/15 03:53:06;;;;;;;9.77;8.97;;;17.30;81.60;17.80;96903.00;;;;4954265;28;20227;-83
2022/04/15 03:55:33;;;;;;;10.17;9.23;;;17.30;81.70;17.80;96904.00;;;;4953519;28;20588;-84
2022/04/15 03:58:01;;;;;;;10.20;9.20;;;17.30;81.80;17.80;96910.00;;;;4954377;28;20559;-84
2022/04/15 04:00:28;;;;;;;11.23;10.13;;;17.30;81.90;17.80;96907.00;;;;4953921;28;20193;-84
2022/04/15 04:02:56;;;;;;;10.37;9.47;;;17.30;81.80;17.90;96898.00;;;;4953891;29;20679;-84
2022/04/15 04:05:24;;;;;;;10.90;9.87;;;17.30;81.60;17.80;96909.00;;;;4953499;29;20224;-84
2022/04/15 04:07:52;;;;;;;10.50;9.47;;;17.30;81.70;17.80;96909.00;;;;4953817;28;20687;-84
2022/04/15 04:10:19;;;;;;;10.90;9.90;;;17.30;81.80;17.80;96916.00;;;;4958688;28;20206;-84
2022/04/15 04:12:48;;;;;;;10.80;9.80;;;17.30;81.80;17.80;96920.00;;;;4996936;28;20223;-84
2022/04/15 04:15:17;;;;;;;10.00;9.20;;;17.30;81.80;17.80;96923.00;;;;4953546;28;20223;-84
2022/04/15 04:17:44;;;;;;;11.00;10.00;;;17.30;81.70;17.80;96918.00;;;;4953466;29;20188;-84
2022/04/15 04:20:13;;;;;;;11.00;10.00;;;17.30;81.60;17.80;96924.00;;;;4953747;29;20200;-84
2022/04/15 04:22:41;;;;;;;11.07;10.00;;;17.30;81.40;17.80;96925.00;;;;4953532;28;20594;-84
2022/04/15 04:25:10;;;;;;;11.33;10.33;;;17.30;81.30;17.80;96926.00;;;;4953198;28;20203;-84
2022/04/15 04:27:38;;;;;;;10.27;9.27;;;17.20;81.30;17.80;96926.00;;;;4953367;29;20206;-83
2022/04/15 04:30:08;;;;;;;11.20;10.10;;;17.20;81.20;17.80;96927.00;;;;4953385;29;20544;-84
2022/04/15 04:32:37;;;;;;;11.30;10.20;;;17.20;81.20;17.80;96932.00;;;;4953216;29;20219;-84
2022/04/15 04:35:08;;;;;;;11.10;10.10;;;17.20;81.10;17.80;96931.00;;;;4952901;28;20196;-84
2022/04/15 04:37:35;;;;;;;10.60;9.60;;;17.20;81.10;17.80;96942.00;;;;4953252;28;20216;-84
2022/04/15 04:40:03;;;;;;;11.00;10.00;;;17.20;80.90;17.70;96937.00;;;;4952836;28;20200;-84
2022/04/15 04:42:30;;;;;;;11.60;10.47;;;17.20;80.90;17.70;96937.00;;;;4952806;28;20658;-84
2022/04/15 04:44:58;;;;;;;11.63;10.40;;;17.20;80.90;17.70;96944.00;;;;4952760;28;20207;-83
2022/04/15 04:47:26;;;;;;;11.47;10.47;;;17.20;80.90;17.70;96947.00;;;;4953372;28;20673;-84
2022/04/15 04:49:55;;;;;;;11.37;10.37;;;17.20;81.50;17.70;96952.00;;;;4952879;28;20579;-84
2022/04/15 04:52:24;;;;;;;11.07;10.07;;;17.20;80.70;17.70;96946.00;;;;4951887;28;20196;-84
2022/04/15 04:54:51;;;;;;;11.97;10.87;;;17.20;80.70;17.70;96946.00;;;;4934074;28;20259;-84
2022/04/15 04:57:18;;;;;;;11.13;10.07;;;17.10;80.70;17.70;96954.00;;;;4998469;28;20226;-84
2022/04/15 04:59:45;;;;;;;10.90;9.90;;;17.20;80.90;17.60;96959.00;;;;4952193;28;20211;-84
2022/04/15 05:02:12;;;;;;;11.83;10.63;;;17.10;81.00;17.70;96960.00;;;;4972754;28;20279;-84
2022/04/15 05:04:40;;;;;;;11.77;10.57;;;17.10;81.10;17.70;96963.00;;;;4952900;28;20196;-84
2022/04/15 05:07:09;;;;;;;11.60;10.60;;;17.10;81.00;17.70;96965.00;;;;4953149;28;20239;-86
2022/04/15 05:09:41;;;;;;;11.80;10.70;;;17.10;81.00;17.70;96969.00;;;;4953023;28;20659;-85
2022/04/15 05:12:10;;;;;;;10.97;9.97;;;17.10;80.80;17.70;96970.00;;;;4940271;29;20662;-87
2022/04/15 05:14:37;;;;;;;12.00;10.90;;;17.10;80.70;17.70;96976.00;;;;4960128;28;20219;-84
2022/04/15 05:17:05;;;;;;;11.97;10.87;;;17.10;80.80;17.80;96977.00;;;;4952790;28;20262;-86
2022/04/15 05:19:32;;;;;;;12.17;10.97;;;17.20;80.80;17.80;96974.00;;;;4953232;29;20204;-85
2022/04/15 05:21:59;;;;;;;12.10;10.90;;;17.20;81.40;17.80;96973.00;;;;4949685;29;20197;-85
2022/04/15 05:24:28;;;;;;;11.60;10.60;;;17.20;80.60;17.90;96979.00;;;;4954999;28;20212;-85
2022/04/15 05:26:55;;;;;;;11.00;10.00;;;17.20;80.50;17.90;96987.00;;;;4952516;28;20220;-85
2022/04/15 05:29:22;;;;;;;11.83;10.73;;;17.20;80.30;17.90;96984.00;;;;4952651;28;20215;-85
2022/04/15 05:31:49;;;;;;;11.87;10.77;;;17.20;80.30;17.90;96987.00;;;;4952421;29;20257;-85
2022/04/15 05:34:16;;;;;;;11.40;10.30;;;17.30;80.40;17.90;96992.00;;;;4952330;28;20220;-86
2022/04/15 05:36:43;;;;;;;11.97;10.80;;;17.30;81.10;18.00;97003.00;;;;4951889;28;20294;-86
2022/04/15 05:39:11;;;;;;;12.20;11.00;;;17.30;80.30;18.00;96996.00;;;;4952422;29;20196;-87
2022/04/15 05:41:39;;;;;;;12.50;11.30;;;17.40;80.40;18.00;97000.00;;;;4952090;29;20303;-87
2022/04/15 05:44:08;;;;;;;12.60;10.80;;;17.40;80.30;18.10;96992.00;;;;4952379;28;20290;-87
2022/04/15 05:46:37;;;;;;;12.40;11.20;;;17.40;80.40;18.10;97000.00;;;;4952301;28;20656;-86
2022/04/15 05:49:06;;;;;;;12.53;11.30;;;17.40;80.70;18.10;97006.00;;;;4954213;28;20204;-89
2022/04/15 05:51:34;;;;;;;11.30;10.20;;;17.50;80.70;18.20;96997.00;;;;5018333;28;20284;-86
2022/04/15 05:54:01;;;;;;;11.97;10.73;;;17.50;80.50;18.20;97002.00;;;;4960441;28;20223;-86
2022/04/15 05:56:27;;;;;;;13.30;11.97;;;17.50;80.30;18.20;97004.00;;;;4951791;29;20208;-85
2022/04/15 05:58:56;;;;;;;11.30;10.27;;;17.60;80.20;18.30;97008.00;;;;4989881;28;20200;-87
2022/04/15 06:01:23;;;;;;;11.00;10.00;;;17.60;80.10;18.30;97022.00;;;;4981441;28;20192;-86
2022/04/15 06:03:50;;;;;;;10.83;9.83;;;17.60;80.00;18.40;97019.00;;;;4951954;29;20291;-85
2022/04/15 06:06:17;;;;;;;12.60;11.40;;;17.70;80.00;18.40;97014.00;;;;4952617;28;20234;-86
2022/04/15 06:08:44;;;;;;;13.27;11.87;;;17.70;80.10;18.40;97018.00;;;;4952394;29;20215;-86
2022/04/15 06:11:11;;;;;;;12.43;11.13;;;17.70;80.60;18.40;97021.00;;;;4952250;29;20212;-87
2022/04/15 06:13:41;;;;;;;13.37;11.97;;;17.70;79.50;18.40;97018.00;;;;4952241;28;20310;-86
2022/04/15 06:16:10;;;;;;;13.13;11.73;;;17.80;79.50;18.40;97031.00;;;;4952394;28;20228;-88
2022/04/15 06:18:37;;;;;;;13.70;12.37;;;17.80;79.40;18.40;97030.00;;;;4952061;29;20685;-88
2022/04/15 06:21:04;;;;;;;13.67;12.23;;;17.80;79.20;18.40;97030.00;;;;4951938;29;20219;-87
2022/04/15 06:23:32;;;;;;;14.60;12.97;;;17.70;79.10;18.40;97036.00;;;;4952081;28;20215;-87
2022/04/15 06:25:59;;;;;;;12.97;11.67;;;17.80;79.00;18.40;97034.00;;;;4951658;28;20224;-88
2022/04/15 06:28:26;;;;;;;14.47;13.07;;;17.80;79.00;18.40;97035.00;;;;4951844;29;20206;-86
2022/04/15 06:30:54;;;;;;;14.40;12.90;;;17.80;79.00;18.40;97035.00;;;;4952158;29;20200;-88
2022/04/15 06:33:22;;;;;;;14.30;12.77;;;17.80;78.90;18.50;97032.00;;;;4951692;28;20770;-88
2022/04/15 06:35:51;;;;;;;15.50;13.80;;;17.90;78.90;18.50;97033.00;;;;4951631;28;20226;-89
2022/04/15 06:38:18;;;;;;;15.87;14.17;;;17.90;78.90;18.60;97029.00;;;;4951943;28;20261;-87
2022/04/15 06:40:45;;;;;;;16.77;14.30;;;18.00;78.90;18.60;97026.00;;;;4958613;28;20207;-88
2022/04/15 06:43:14;;;;;;;16.57;14.80;;;17.90;78.70;18.60;97029.00;;;;4951994;28;20212;-87
2022/04/15 06:45:41;;;;;;;17.00;15.20;;;18.00;78.60;18.50;97034.00;;;;4951734;28;20613;-87
2022/04/15 06:48:09;;;;;;;14.63;13.13;;;18.10;78.50;18.60;97037.00;;;;4952184;28;20211;-88
2022/04/15 06:50:38;;;;;;;16.33;14.37;;;18.00;78.50;18.60;97040.00;;;;4937993;29;20534;-88
2022/04/15 06:53:06;;;;;;;17.10;14.93;;;18.10;78.60;18.80;97042.00;;;;4951730;28;20569;-89
2022/04/15 06:55:33;;;;;;;20.07;16.07;;;18.10;79.00;18.80;97043.00;;;;4951585;28;20216;-89
2022/04/15 06:58:00;;;;;;;17.67;14.57;;;18.10;78.80;18.90;97048.00;;;;4951803;29;20196;-87
2022/04/15 07:00:27;;;;;;;18.87;15.40;;;18.30;78.20;18.90;97044.00;;;;4951745;28;20196;-88
2022/04/15 07:02:55;;;;;;;15.47;13.87;;;18.30;77.40;18.80;97046.00;;;;4953697;28;20214;-88
2022/04/15 07:05:23;;;;;;;14.47;12.97;;;18.30;77.20;18.80;97051.00;;;;4954677;28;20223;-89
2022/04/15 07:07:52;;;;;;;14.67;13.07;;;18.30;77.20;18.90;97052.00;;;;4955258;28;20207;-89
2022/04/15 07:10:19;;;;;;;14.40;12.90;;;18.30;77.10;18.90;97062.00;;;;4955023;29;20206;-88
2022/04/15 07:12:46;;;;;;;14.40;12.90;;;18.40;77.10;19.00;97051.00;;;;4955188;28;20199;-88
2022/04/15 07:15:13;;;;;;;15.67;13.90;;;18.40;77.10;19.10;97066.00;;;;4954443;28;20693;-87
2022/04/15 07:17:40;;;;;;;14.47;12.87;;;18.40;77.10;19.10;97062.00;;;;4954838;29;20571;-89
2022/04/15 07:20:08;;;;;;;13.27;12.00;;;18.50;77.00;19.30;97056.00;;;;4940255;28;20219;-87
2022/04/15 07:22:35;;;;;;;13.23;11.90;;;18.60;77.30;19.40;97054.00;;;;4936482;29;20295;-88
2022/04/15 07:25:05;;;;;;;15.03;12.20;;;18.70;77.80;19.60;97058.00;;;;4935691;28;20204;-89
2022/04/15 07:27:32;;;;;;;13.40;11.97;;;18.80;77.80;19.90;97055.00;;;;4943970;29;20219;-88
2022/04/15 07:29:59;;;;;;;13.50;11.77;;;18.90;78.20;20.10;97064.00;;;;4955472;28;20208;-88
2022/04/15 07:32:28;;;;;;;13.47;12.07;;;19.10;78.00;20.30;97068.00;;;;4967394;28;20215;-87
2022/04/15 07:34:56;;;;;;;14.17;12.73;;;19.20;77.70;20.50;97067.00;;;;5054088;28;20220;-87
2022/04/15 07:37:23;;;;;;;12.87;11.47;;;19.50;77.60;20.60;97065.00;;;;5047951;28;20197;-85
2022/04/15 07:39:50;;;;;;;12.13;10.93;;;19.60;77.20;20.80;97066.00;;;;4975092;28;20197;-88
2022/04/15 07:42:18;;;;;;;12.20;11.00;;;19.80;76.80;21.00;97070.00;;;;4954252;28;20216;-88
2022/04/15 07:44:45;;;;;;;11.20;10.10;;;19.90;76.10;21.10;97071.00;;;;4954350;28;20287;-89
2022/04/15 07:47:13;;;;;;;11.33;10.23;;;20.10;76.30;21.30;97061.00;;;;4955391;28;20586;-89
2022/04/15 07:49:40;;;;;;;11.53;10.37;;;20.20;76.00;21.40;97071.00;;;;4955012;29;20670;-88
2022/04/15 07:52:08;;;;;;;10.93;9.83;;;20.40;75.20;21.50;97059.00;;;;4956097;29;20199;-88
2022/04/15 07:54:36;;;;;;;11.10;10.00;;;20.60;74.40;21.60;97076.00;;;;4955025;28;20653;-89
2022/04/15 07:57:03;;;;;;;10.77;9.73;;;20.70;73.20;21.70;97065.00;;;;4954128;28;20224;-88
2022/04/15 07:59:31;;;;;;;10.80;9.80;;;20.80;72.80;21.70;97072.00;;;;4954517;29;20199;-87
2022/04/15 08:01:59;;;;;;;9.60;8.70;;;20.90;72.60;21.80;97067.00;;;;4954634;28;20200;-88
2022/04/15 08:04:27;;;;;;;10.17;9.17;;;20.90;72.20;21.90;97063.00;;;;4954054;28;20214;-87
2022/04/15 08:06:54;;;;;;;9.43;8.63;;;21.00;71.70;22.00;97060.00;;;;4953714;28;20212;-88
2022/04/15 08:09:22;;;;;;;10.43;9.43;;;21.10;71.80;22.10;97061.00;;;;4953587;29;20201;-88
2022/04/15 08:11:49;;;;;;;9.33;8.50;;;21.20;72.00;22.30;97068.00;;;;4954036;28;20210;-88
2022/04/15 08:14:16;;;;;;;10.17;9.17;;;21.20;71.40;22.40;97065.00;;;;4953134;28;20285;-87
2022/04/15 08:16:45;;;;;;;9.60;8.80;;;21.30;71.70;22.60;97073.00;;;;4953440;28;20242;-87
2022/04/15 08:19:12;;;;;;;9.77;8.83;;;21.40;71.00;22.70;97068.00;;;;4953519;28;20227;-87
2022/04/15 08:21:39;;;;;;;9.23;8.03;;;21.50;70.70;22.80;97068.00;;;;4953356;29;20195;-87
2022/04/15 08:24:08;;;;;;;10.10;8.00;;;21.60;70.50;22.90;97074.00;;;;4951825;28;20218;-87
2022/04/15 08:26:36;;;;;;;9.30;8.40;;;21.70;68.50;23.00;97076.00;;;;4932865;29;20220;-87
2022/04/15 08:29:03;;;;;;;9.30;8.40;;;21.80;68.90;23.10;97073.00;;;;4935987;28;20200;-87
2022/04/15 08:31:30;;;;;;;9.00;8.20;;;21.90;68.90;23.30;97080.00;;;;4953218;28;20238;-88
2022/04/15 08:33:59;;;;;;;8.90;8.10;;;22.00;68.50;23.60;97080.00;;;;4952996;28;20228;-88
2022/04/15 08:36:27;;;;;;;8.13;7.30;;;22.10;68.50;23.80;97093.00;;;;4952635;28;20220;-88
2022/04/15 08:38:54;;;;;;;8.67;7.87;;;22.30;69.50;24.20;97089.00;;;;4953583;28;20212;-88
2022/04/15 08:41:24;;;;;;;8.10;7.40;;;22.50;69.20;24.50;97090.00;;;;4953719;28;20231;-86
2022/04/15 08:43:51;;;;;;;8.30;7.50;;;22.70;68.90;24.80;97091.00;;;;4953235;28;20614;-88
2022/04/15 08:46:21;;;;;;;7.33;6.63;;;23.00;68.30;25.10;97095.00;;;;4980098;28;20624;-88
2022/04/15 08:48:52;;;;;;;8.10;7.00;;;23.30;68.40;25.30;97097.00;;;;4976777;28;20215;-88
2022/04/15 08:51:20;;;;;;;8.00;7.20;;;23.60;67.00;25.60;97104.00;;;;4975184;28;20287;-87
2022/04/15 08:53:52;;;;;;;7.77;6.97;;;24.00;66.40;25.90;97104.00;;;;4951904;29;20668;-86
2022/04/15 08:56:21;;;;;;;7.10;6.50;;;24.30;65.50;26.20;97106.00;;;;4951890;28;20232;-87
2022/04/15 08:58:49;;;;;;;8.17;7.47;;;24.70;64.90;26.50;97106.00;;;;4952978;28;20292;-86
2022/04/15 09:01:16;;;;;;;7.47;6.77;;;25.10;63.80;26.80;97105.00;;;;4968556;28;20201;-88
2022/04/15 09:03:44;;;;;;;7.17;6.47;;;25.40;62.60;27.10;97108.00;;;;4963142;28;20211;-88
2022/04/15 09:06:15;;;;;;;6.50;5.97;;;25.70;61.90;27.40;97105.00;;;;4945349;28;20231;-88
2022/04/15 09:09:08;;;;;;;8.23;6.83;;;26.00;58.80;27.60;97108.00;;;;4933556;29;20177;-87
2022/04/15 09:11:37;;;;;;;7.20;6.60;;;26.30;58.70;27.70;97108.00;;;;4936792;28;20243;-87
2022/04/15 09:14:11;;;;;;;7.57;6.73;;;26.40;58.30;27.80;97102.00;;;;4933826;28;20224;-88
2022/04/15 09:16:40;;;;;;;6.87;6.27;;;26.60;56.60;28.00;97100.00;;;;4948914;28;20227;-88
2022/04/15 09:19:09;;;;;;;6.88;6.28;;;26.80;58.10;28.20;97102.00;;;;4955077;28;20199;-89
2022/04/15 09:21:37;;;;;;;6.85;6.32;;;27.10;57.60;28.40;97103.00;;;;4954979;28;20229;-87
2022/04/15 09:24:07;;;;;;;6.55;5.95;;;27.40;57.00;28.70;97098.00;;;;4953051;28;20212;-87
2022/04/15 09:26:36;;;;;;;6.45;5.85;;;27.70;55.10;28.70;97107.00;;;;4952158;28;20224;-87
2022/04/15 09:29:05;;;;;;;5.57;5.18;;;28.00;53.10;28.60;97103.00;;;;4953535;28;20199;-87
2022/04/15 09:31:33;;;;;;;6.22;5.47;;;28.20;52.00;28.50;97099.00;;;;4953303;28;20626;-87
2022/04/15 09:34:02;;;;;;;6.32;5.78;;;28.40;52.80;28.60;97106.00;;;;4945332;28;20611;-88
2022/04/15 09:36:35;;;;;;;5.15;4.75;;;28.70;52.50;28.70;97101.00;;;;4940590;28;20311;-87
2022/04/15 09:39:11;;;;;;;6.00;5.15;;;29.00;51.40;28.90;97109.00;;;;4970221;28;20196;-86
2022/04/15 09:41:40;;;;;;;5.93;4.90;;;29.30;51.10;29.00;97104.00;;;;4952573;28;20219;-87
2022/04/15 09:44:12;;;;;;;5.18;4.78;;;29.50;51.10;29.10;97108.00;;;;4951633;29;21511;-87
2022/04/15 09:46:48;;;;;;;5.35;4.85;;;29.80;50.50;29.10;97106.00;;;;5084821;28;20971;-80
2022/04/15 09:49:16;;;;;;;5.68;5.18;;;30.00;50.10;29.10;97102.00;;;;5064571;28;20192;-83
2022/04/15 09:51:46;;;;;;;5.38;4.88;;;30.10;49.40;29.10;97108.00;;;;5068334;28;20196;-82
2022/04/15 09:54:23;;;;;;;4.57;4.25;;;30.30;49.00;29.20;97102.00;;;;5057888;28;20216;-82
2022/04/15 09:56:52;;;;;;;3.78;3.47;;;30.40;47.80;29.40;97104.00;;;;5048210;28;20203;-82
2022/04/15 09:59:23;;;;;;;4.68;4.18;;;30.60;49.00;29.50;97109.00;;;;5051768;28;21178;-82
2022/04/15 10:01:55;;;;;;;4.70;4.30;;;30.70;47.70;29.40;97112.00;;;;5051767;28;20213;-82
2022/04/15 10:04:25;;;;;;;4.57;4.18;;;30.60;46.00;29.20;97108.00;;;;5055990;28;20223;-82
2022/04/15 10:06:53;;;;;;;4.47;4.10;;;30.40;46.60;29.10;97102.00;;;;5057199;28;20197;-82
2022/04/15 10:09:21;;;;;;;4.13;3.75;;;30.20;47.30;29.10;97101.00;;;;5057625;28;20208;-82
2022/04/15 10:11:50;;;;;;;4.07;3.78;;;30.10;46.10;29.10;97106.00;;;;5057371;28;20236;-82
2022/04/15 10:14:21;;;;;;;3.80;3.40;;;30.10;46.00;29.00;97102.00;;;;5054137;28;20658;-83
2022/04/15 10:16:48;;;;;;;4.10;3.70;;;30.00;44.80;29.00;97096.00;;;;5049521;28;20208;-83
2022/04/15 10:19:19;;;;;;;3.97;3.67;;;29.90;45.10;28.90;97103.00;;;;5049932;28;20185;-82
2022/04/15 10:21:50;;;;;;;4.70;4.32;;;29.80;45.50;28.80;97098.00;;;;5055822;28;20273;-83
2022/04/15 10:24:18;;;;;;;4.63;4.22;;;29.70;46.10;28.70;97095.00;;;;5052992;28;20228;-82
2022/04/15 10:26:49;;;;;;;4.38;4.00;;;29.50;45.40;28.70;97094.00;;;;5052517;28;20213;-82
2022/04/15 10:29:16;;;;;;;4.13;3.83;;;29.40;45.00;28.60;97086.00;;;;5048292;28;20629;-82
2022/04/15 10:31:45;;;;;;;4.25;3.95;;;29.30;45.40;28.40;97075.00;;;;5052729;28;20197;-83
2022/04/15 10:34:17;;;;;;;4.55;4.15;;;29.10;45.10;28.30;97076.00;;;;5053618;28;20225;-83
2022/04/15 10:36:47;;;;;;;3.85;3.55;;;29.00;44.40;28.30;97068.00;;;;5054239;28;20208;-82
2022/04/15 10:39:18;;;;;;;3.75;3.45;;;29.00;44.70;28.20;97071.00;;;;5050467;28;20232;-82
2022/04/15 10:41:54;;;;;;;3.10;2.90;;;29.00;45.00;28.20;97071.00;;;;5046505;28;20208;-83
2022/04/15 10:44:30;;;;;;;3.63;3.33;;;29.00;44.60;28.20;97071.00;;;;5045685;28;20302;-83
2022/04/15 10:47:29;;;;;;;4.10;3.80;;;29.00;44.20;28.20;97070.00;;;;5045515;28;20315;-83
2022/04/15 10:50:03;;;;;;;2.92;2.72;;;29.00;43.50;28.20;97068.00;;;;5045401;28;20293;-82
2022/04/15 10:52:33;;;;;;;4.28;3.20;;;28.90;44.40;28.10;97061.00;;;;5043840;28;20610;-83
2022/04/15 10:55:02;;;;;;;3.03;2.83;;;28.80;44.20;28.00;97067.00;;;;5044202;28;20220;-83